LRM weather

Casa De Campo International Airport
La Romana, La Romana Province, Dominican Republic

Public forecast

Using degrees Celsius for public forecast. Weather courtesy of forecast.io.

Current aviation weather report (METAR) for Casa De Campo International Airport

Retrieved 2019/10/13 19:00 UTC (45 minutes ago):

MDLR 131900Z 18008KT 9999 FEW021CB SCT022 32/23 Q1011 CB/W/NW

Aviation forecast (TAF) for Casa De Campo International Airport

Retrieved 2019/10/13 18:20 UTC (1 hour ago):

TAF MDLR 131600Z 1318/1418 16006KT 9999 SCT022 PROB30 1319/1401 8000 -SHRA FEW016CB SCT018 BECMG 1400/1402 00000KT